createdAt,value
2022-09-10T00:00:00.541Z,15.56
2022-09-10T00:01:00.524Z,15.56
2022-09-10T00:02:00.584Z,15.54
2022-09-10T00:03:00.544Z,15.53
2022-09-10T00:04:00.491Z,15.53
2022-09-10T00:05:00.474Z,15.53
2022-09-10T00:06:00.461Z,15.53
2022-09-10T00:07:00.461Z,15.51
2022-09-10T00:08:00.451Z,15.50
2022-09-10T00:09:00.440Z,15.49
2022-09-10T00:10:00.430Z,15.50
2022-09-10T00:11:00.414Z,15.47
2022-09-10T00:12:00.427Z,15.47
2022-09-10T00:13:00.388Z,15.47
2022-09-10T00:14:00.384Z,15.49
2022-09-10T00:15:00.363Z,15.47
2022-09-10T00:16:00.399Z,15.47
2022-09-10T00:17:00.360Z,15.46
2022-09-10T00:18:00.334Z,15.47
2022-09-10T00:19:00.319Z,15.49
2022-09-10T00:20:00.414Z,15.50
2022-09-10T00:21:00.309Z,15.50
2022-09-10T00:22:00.303Z,15.49
2022-09-10T00:23:00.278Z,15.47
2022-09-10T00:24:00.275Z,15.44
2022-09-10T00:25:01.663Z,15.44
2022-09-10T00:26:00.250Z,15.43
2022-09-10T00:27:00.238Z,15.43
2022-09-10T00:28:00.231Z,15.41
2022-09-10T00:29:00.247Z,15.41
2022-09-10T00:30:00.280Z,15.39
2022-09-10T00:31:00.229Z,15.43
2022-09-10T00:32:00.175Z,15.41
2022-09-10T00:33:00.165Z,15.43
2022-09-10T00:34:00.185Z,15.41
2022-09-10T00:35:00.223Z,15.39
2022-09-10T00:36:00.144Z,15.39
2022-09-10T00:37:00.133Z,15.41
2022-09-10T00:38:00.114Z,15.39
2022-09-10T00:39:00.117Z,15.38
2022-09-10T00:40:00.247Z,15.39
2022-09-10T00:41:00.078Z,15.39
2022-09-10T00:42:00.089Z,15.39
2022-09-10T00:43:00.082Z,15.38
2022-09-10T00:44:00.073Z,15.36
2022-09-10T00:45:00.106Z,15.35
2022-09-10T00:46:00.036Z,15.36
2022-09-10T00:47:00.023Z,15.35
2022-09-10T00:48:00.013Z,15.34
2022-09-10T00:48:59.995Z,15.32
2022-09-10T00:50:00.005Z,15.32
2022-09-10T00:50:59.978Z,15.31
2022-09-10T00:51:59.974Z,15.29
2022-09-10T00:52:59.957Z,15.28
2022-09-10T00:53:59.951Z,15.29
2022-09-10T00:54:59.940Z,15.28
2022-09-10T00:55:59.933Z,15.27
2022-09-10T00:56:59.928Z,15.27
2022-09-10T00:57:59.908Z,15.27
2022-09-10T00:58:59.892Z,15.25
2022-09-10T00:59:59.897Z,15.25
2022-09-10T01:01:00.007Z,15.23
2022-09-10T01:01:59.956Z,15.23
2022-09-10T01:02:59.853Z,15.21
2022-09-10T01:03:59.838Z,15.21
2022-09-10T01:04:59.828Z,15.21
2022-09-10T01:05:59.870Z,15.21
2022-09-10T01:06:59.816Z,15.21
2022-09-10T01:07:59.812Z,15.20
2022-09-10T01:08:59.786Z,15.20
2022-09-10T01:09:59.777Z,15.19
2022-09-10T01:10:59.782Z,15.19
2022-09-10T01:11:59.768Z,15.17
2022-09-10T01:12:59.752Z,15.17
2022-09-10T01:13:59.733Z,15.17
2022-09-10T01:14:59.720Z,15.17
2022-09-10T01:15:59.723Z,15.16
2022-09-10T01:16:59.695Z,15.13
2022-09-10T01:17:59.700Z,15.11
2022-09-10T01:18:59.688Z,15.11
2022-09-10T01:19:59.688Z,15.11
2022-09-10T01:20:59.659Z,15.09
2022-09-10T01:21:59.646Z,15.07
2022-09-10T01:22:59.640Z,15.06
2022-09-10T01:23:59.627Z,15.03
2022-09-10T01:24:59.609Z,15.06
2022-09-10T01:25:59.612Z,15.01
2022-09-10T01:26:59.599Z,15.01
2022-09-10T01:27:59.605Z,15.01
2022-09-10T01:28:59.580Z,14.99
2022-09-10T01:29:59.557Z,15.01
2022-09-10T01:30:59.544Z,14.98
2022-09-10T01:31:59.546Z,14.99
2022-09-10T01:32:59.538Z,14.99
2022-09-10T01:33:59.538Z,14.98
2022-09-10T01:34:59.523Z,14.99
2022-09-10T01:35:59.499Z,14.99
2022-09-10T01:36:59.494Z,14.99
2022-09-10T01:37:59.478Z,14.96
2022-09-10T01:38:59.482Z,14.94
2022-09-10T01:39:59.496Z,14.94
2022-09-10T01:40:59.448Z,14.94
2022-09-10T01:41:59.427Z,14.91
2022-09-10T01:42:59.416Z,14.92
2022-09-10T01:43:59.413Z,14.92
2022-09-10T01:44:59.416Z,14.92
2022-09-10T01:45:59.419Z,14.89
2022-09-10T01:46:59.382Z,14.89
2022-09-10T01:47:59.364Z,14.86
2022-09-10T01:48:59.350Z,14.86
2022-09-10T01:49:59.388Z,14.86
2022-09-10T01:50:59.351Z,14.84
2022-09-10T01:51:59.328Z,14.86
2022-09-10T01:52:59.310Z,14.83
2022-09-10T01:53:59.303Z,14.84
2022-09-10T01:54:59.296Z,14.84
2022-09-10T01:55:59.302Z,14.84
2022-09-10T01:56:59.275Z,14.83
2022-09-10T01:57:59.268Z,14.83
2022-09-10T01:58:59.242Z,14.83
2022-09-10T01:59:59.236Z,14.81
2022-09-10T02:00:59.255Z,14.80
2022-09-10T02:01:59.244Z,14.78
2022-09-10T02:02:59.209Z,14.77
2022-09-10T02:03:59.203Z,14.78
2022-09-10T02:04:59.184Z,14.78
2022-09-10T02:05:59.170Z,14.80
2022-09-10T02:06:59.163Z,14.81
2022-09-10T02:07:59.171Z,14.81
2022-09-10T02:08:59.174Z,14.81
2022-09-10T02:09:59.136Z,14.81
2022-09-10T02:10:59.111Z,14.81
2022-09-10T02:11:59.106Z,14.81
2022-09-10T02:12:59.119Z,14.81
2022-09-10T02:13:59.086Z,14.81
2022-09-10T02:14:59.088Z,14.78
2022-09-10T02:15:59.115Z,14.77
2022-09-10T02:16:59.066Z,14.78
2022-09-10T02:17:59.087Z,14.77
2022-09-10T02:18:59.035Z,14.75
2022-09-10T02:19:59.038Z,14.75
2022-09-10T02:20:59.008Z,14.75
2022-09-10T02:21:58.999Z,14.72
2022-09-10T02:22:58.982Z,14.72
2022-09-10T02:23:59.004Z,14.69
2022-09-10T02:24:58.969Z,14.68
2022-09-10T02:25:58.957Z,14.68
2022-09-10T02:26:58.950Z,14.64
2022-09-10T02:27:58.936Z,14.65
2022-09-10T02:28:58.960Z,14.64
2022-09-10T02:29:58.924Z,14.62
2022-09-10T02:30:58.908Z,14.62
2022-09-10T02:31:58.886Z,14.62
2022-09-10T02:32:58.874Z,14.60
2022-09-10T02:33:58.896Z,14.60
2022-09-10T02:34:58.910Z,14.58
2022-09-10T02:35:58.852Z,14.58
2022-09-10T02:36:58.847Z,14.57
2022-09-10T02:37:58.822Z,14.58
2022-09-10T02:38:58.809Z,14.61
2022-09-10T02:39:58.875Z,14.60
2022-09-10T02:40:58.790Z,14.61
2022-09-10T02:41:58.777Z,14.60
2022-09-10T02:42:58.766Z,14.61
2022-09-10T02:43:58.758Z,14.60
2022-09-10T02:44:58.765Z,14.58
2022-09-10T02:45:58.801Z,14.57
2022-09-10T02:46:58.728Z,14.55
2022-09-10T02:47:58.719Z,14.54
2022-09-10T02:48:58.704Z,14.55
2022-09-10T02:49:58.703Z,14.55
2022-09-10T02:50:58.708Z,14.57
2022-09-10T02:51:58.685Z,14.58
2022-09-10T02:52:58.659Z,14.60
2022-09-10T02:53:58.656Z,14.60
2022-09-10T02:54:58.634Z,14.60
2022-09-10T02:55:58.649Z,14.58
2022-09-10T02:56:58.628Z,14.55
2022-09-10T02:57:58.609Z,14.54
2022-09-10T02:58:58.596Z,14.52
2022-09-10T02:59:58.595Z,14.52
2022-09-10T03:00:58.599Z,14.52
2022-09-10T03:01:58.662Z,14.52
2022-09-10T03:03:02.796Z,14.51
2022-09-10T03:03:58.558Z,14.47
2022-09-10T03:04:58.526Z,14.50
2022-09-10T03:05:58.522Z,14.47
2022-09-10T03:06:58.522Z,14.51
2022-09-10T03:07:58.522Z,14.47
2022-09-10T03:08:58.494Z,14.46
2022-09-10T03:09:58.485Z,14.46
2022-09-10T03:10:58.473Z,14.43
2022-09-10T03:11:58.492Z,14.45
2022-09-10T03:12:58.440Z,14.43
2022-09-10T03:13:58.449Z,14.45
2022-09-10T03:14:58.413Z,14.45
2022-09-10T03:15:58.453Z,14.46
2022-09-10T03:16:58.406Z,14.43
2022-09-10T03:17:58.401Z,14.42
2022-09-10T03:18:58.382Z,14.39
2022-09-10T03:19:58.377Z,14.36
2022-09-10T03:20:58.351Z,14.33
2022-09-10T03:21:58.349Z,14.29
2022-09-10T03:22:58.348Z,14.29
2022-09-10T03:23:58.341Z,14.29
2022-09-10T03:24:58.348Z,14.28
2022-09-10T03:25:58.314Z,14.29
2022-09-10T03:26:58.287Z,14.25
2022-09-10T03:27:58.282Z,14.27
2022-09-10T03:28:58.269Z,14.28
2022-09-10T03:29:58.262Z,14.24
2022-09-10T03:30:58.264Z,14.24
2022-09-10T03:31:58.240Z,14.24
2022-09-10T03:32:58.230Z,14.25
2022-09-10T03:33:58.246Z,14.25
2022-09-10T03:34:58.195Z,14.24
2022-09-10T03:35:58.189Z,14.25
2022-09-10T03:36:58.180Z,14.24
2022-09-10T03:37:58.193Z,14.22
2022-09-10T03:38:58.194Z,14.21
2022-09-10T03:39:58.233Z,14.20
2022-09-10T03:40:58.143Z,14.18
2022-09-10T03:41:58.131Z,14.17
2022-09-10T03:42:58.113Z,14.17
2022-09-10T03:43:58.114Z,14.15
2022-09-10T03:44:58.110Z,14.15
2022-09-10T03:45:58.151Z,14.15
2022-09-10T03:46:58.061Z,14.14
2022-09-10T03:47:58.072Z,14.12
2022-09-10T03:48:58.041Z,14.12
2022-09-10T03:49:58.072Z,14.10
2022-09-10T03:50:58.062Z,14.10
2022-09-10T03:51:58.011Z,14.09
2022-09-10T03:52:57.998Z,14.06
2022-09-10T03:53:58.012Z,14.07
2022-09-10T03:54:57.981Z,14.07
2022-09-10T03:55:57.984Z,14.09
2022-09-10T03:56:57.982Z,14.07
2022-09-10T03:57:57.965Z,14.07
2022-09-10T03:58:57.945Z,14.09
2022-09-10T03:59:57.945Z,14.09
2022-09-10T04:00:57.975Z,14.07
2022-09-10T04:01:58.085Z,14.09
2022-09-10T04:02:57.906Z,14.07
2022-09-10T04:03:57.884Z,14.07
2022-09-10T04:04:57.875Z,14.07
2022-09-10T04:05:57.921Z,14.06
2022-09-10T04:06:57.898Z,14.04
2022-09-10T04:07:57.863Z,14.03
2022-09-10T04:08:57.832Z,14.03
2022-09-10T04:09:57.824Z,14.02
2022-09-10T04:10:57.818Z,14.02
2022-09-10T04:11:57.829Z,13.99
2022-09-10T04:12:57.802Z,14.00
2022-09-10T04:13:57.789Z,13.99
2022-09-10T04:14:57.765Z,13.97
2022-09-10T04:15:57.754Z,13.96
2022-09-10T04:16:57.759Z,13.99
2022-09-10T04:17:57.765Z,13.96
2022-09-10T04:18:57.735Z,13.97
2022-09-10T04:19:57.723Z,13.97
2022-09-10T04:20:57.703Z,13.96
2022-09-10T04:21:57.735Z,13.95
2022-09-10T04:22:57.698Z,13.95
2022-09-10T04:23:57.686Z,13.92
2022-09-10T04:24:57.678Z,13.92
2022-09-10T04:25:57.657Z,13.91
2022-09-10T04:26:57.631Z,13.91
2022-09-10T04:27:57.649Z,13.89
2022-09-10T04:28:57.643Z,13.89
2022-09-10T04:29:57.624Z,13.87
2022-09-10T04:30:57.617Z,13.88
2022-09-10T04:31:57.599Z,13.87
2022-09-10T04:32:57.572Z,13.87
2022-09-10T04:33:57.576Z,13.85
2022-09-10T04:34:57.560Z,13.84
2022-09-10T04:35:57.548Z,13.84
2022-09-10T04:36:57.540Z,13.84
2022-09-10T04:37:57.521Z,13.84
2022-09-10T04:38:57.518Z,13.85
2022-09-10T04:39:57.523Z,13.84
2022-09-10T04:40:57.490Z,13.81
2022-09-10T04:41:57.480Z,13.81
2022-09-10T04:42:57.468Z,13.79
2022-09-10T04:43:57.472Z,13.79
2022-09-10T04:44:57.446Z,13.77
2022-09-10T04:45:57.508Z,13.77
2022-09-10T04:46:57.427Z,13.77
2022-09-10T04:47:57.436Z,13.77
2022-09-10T04:48:57.407Z,13.78
2022-09-10T04:49:57.418Z,13.77
2022-09-10T04:51:15.225Z,13.78
2022-09-10T04:51:57.525Z,13.78
2022-09-10T04:52:57.435Z,13.79
2022-09-10T04:53:57.382Z,13.79
2022-09-10T04:54:57.409Z,13.79
2022-09-10T04:55:57.351Z,13.79
2022-09-10T04:56:57.345Z,13.81
2022-09-10T04:57:57.353Z,13.79
2022-09-10T04:58:57.351Z,13.81
2022-09-10T04:59:57.447Z,13.79
2022-09-10T05:00:57.366Z,13.81
2022-09-10T05:01:57.336Z,13.81
2022-09-10T05:02:57.253Z,13.81
2022-09-10T05:03:57.290Z,13.82
2022-09-10T05:04:57.244Z,13.84
2022-09-10T05:05:57.261Z,13.82
2022-09-10T05:06:57.202Z,13.82
2022-09-10T05:07:57.197Z,13.81
2022-09-10T05:08:57.198Z,13.82
2022-09-10T05:09:57.202Z,13.81
2022-09-10T05:10:57.220Z,13.82
2022-09-10T05:11:57.162Z,13.81
2022-09-10T05:12:57.259Z,13.78
2022-09-10T05:13:57.179Z,13.77
2022-09-10T05:14:57.208Z,13.78
2022-09-10T05:15:57.124Z,13.81
2022-09-10T05:16:57.166Z,13.78
2022-09-10T05:17:57.109Z,13.81
2022-09-10T05:18:57.189Z,13.82
2022-09-10T05:19:57.170Z,13.82
2022-09-10T05:21:05.043Z,13.84
2022-09-10T05:21:57.116Z,13.82
2022-09-10T05:22:57.126Z,13.84
2022-09-10T05:23:57.022Z,13.84
2022-09-10T05:24:57.045Z,13.84
2022-09-10T05:25:57.029Z,13.84
2022-09-10T05:26:57.028Z,13.85
2022-09-10T05:27:57.027Z,13.85
2022-09-10T05:28:57.109Z,13.85
2022-09-10T05:29:57.015Z,13.85
2022-09-10T05:30:56.977Z,13.87
2022-09-10T05:31:57.309Z,13.87
2022-09-10T05:32:57.068Z,13.89
2022-09-10T05:33:57.117Z,13.91
2022-09-10T05:34:57.022Z,13.92
2022-09-10T05:35:56.950Z,13.95
2022-09-10T05:36:57.198Z,13.95
2022-09-10T05:37:56.918Z,13.92
2022-09-10T05:38:56.862Z,13.96
2022-09-10T05:39:56.911Z,13.97
2022-09-10T05:40:56.846Z,14.00
2022-09-10T05:41:56.825Z,14.02
2022-09-10T05:42:56.832Z,14.03
2022-09-10T05:43:56.825Z,14.02
2022-09-10T05:44:56.864Z,13.99
2022-09-10T05:45:56.894Z,14.02
2022-09-10T05:46:56.819Z,14.03
2022-09-10T05:47:57.000Z,14.02
2022-09-10T05:48:56.816Z,14.03
2022-09-10T05:49:56.804Z,14.06
2022-09-10T05:50:56.748Z,14.07
2022-09-10T05:51:56.757Z,14.09
2022-09-10T05:52:56.737Z,14.12
2022-09-10T05:53:56.814Z,14.15
2022-09-10T05:54:56.730Z,14.17
2022-09-10T05:55:56.716Z,14.20
2022-09-10T05:56:56.727Z,14.21
2022-09-10T05:57:56.663Z,14.24
2022-09-10T05:58:56.674Z,14.25
2022-09-10T05:59:56.679Z,14.28
2022-09-10T06:00:56.665Z,14.29
2022-09-10T06:01:56.660Z,14.32
2022-09-10T06:02:56.745Z,14.33
2022-09-10T06:03:56.645Z,14.36
2022-09-10T06:04:56.648Z,14.39
2022-09-10T06:05:56.612Z,14.43
2022-09-10T06:06:56.612Z,14.43
2022-09-10T06:07:56.566Z,14.46
2022-09-10T06:08:56.563Z,14.51
2022-09-10T06:09:56.997Z,14.54
2022-09-10T06:10:56.840Z,14.57
2022-09-10T06:11:56.520Z,14.60
2022-09-10T06:12:56.541Z,14.62
2022-09-10T06:13:56.552Z,14.65
2022-09-10T06:14:56.488Z,14.69
2022-09-10T06:15:56.552Z,14.73
2022-09-10T06:16:56.561Z,14.75
2022-09-10T06:17:56.473Z,14.78
2022-09-10T06:18:56.583Z,14.80
2022-09-10T06:19:56.444Z,14.83
2022-09-10T06:20:56.408Z,14.86
2022-09-10T06:21:56.456Z,14.89
2022-09-10T06:22:56.394Z,14.94
2022-09-10T06:23:56.423Z,14.96
2022-09-10T06:24:56.365Z,14.99
2022-09-10T06:25:56.356Z,15.01
2022-09-10T06:26:56.401Z,15.03
2022-09-10T06:27:56.482Z,15.09
2022-09-10T06:28:56.318Z,15.13
2022-09-10T06:29:56.365Z,15.14
2022-09-10T06:30:56.387Z,15.16
2022-09-10T06:31:56.328Z,15.17
2022-09-10T06:32:56.312Z,15.23
2022-09-10T06:33:56.371Z,15.25
2022-09-10T06:34:56.313Z,15.28
2022-09-10T06:35:56.294Z,15.32
2022-09-10T06:36:56.305Z,15.34
2022-09-10T06:37:56.293Z,15.38
2022-09-10T06:38:56.314Z,15.39
2022-09-10T06:39:56.259Z,15.43
2022-09-10T06:40:56.201Z,15.46
2022-09-10T06:41:56.225Z,15.50
2022-09-10T06:42:56.192Z,15.53
2022-09-10T06:43:56.159Z,15.56
2022-09-10T06:44:56.164Z,15.57
2022-09-10T06:45:56.279Z,15.60
2022-09-10T06:47:28.244Z,15.64
2022-09-10T06:48:37.234Z,15.65
2022-09-10T06:48:56.555Z,15.68
2022-09-10T06:49:56.369Z,15.71
2022-09-10T06:50:56.171Z,15.75
2022-09-10T06:51:56.069Z,15.76
2022-09-10T06:52:56.093Z,15.80
2022-09-10T06:53:56.083Z,15.84
2022-09-10T06:54:56.068Z,15.87
2022-09-10T06:55:56.099Z,15.90
2022-09-10T06:56:56.026Z,15.93
2022-09-10T06:57:56.014Z,15.96
2022-09-10T06:58:58.347Z,16.00
2022-09-10T06:59:56.077Z,16.02
2022-09-10T07:00:56.049Z,16.07
2022-09-10T07:01:56.004Z,16.08
2022-09-10T07:02:55.957Z,16.11
2022-09-10T07:03:55.933Z,16.12
2022-09-10T07:04:55.930Z,16.15
2022-09-10T07:05:55.917Z,16.21
2022-09-10T07:06:55.922Z,16.24
2022-09-10T07:07:55.909Z,16.28
2022-09-10T07:08:55.884Z,16.33
2022-09-10T07:09:55.868Z,16.38
2022-09-10T07:10:55.896Z,16.39
2022-09-10T07:11:55.847Z,16.42
2022-09-10T07:12:55.849Z,16.46
2022-09-10T07:13:55.825Z,16.49
2022-09-10T07:14:55.815Z,16.49
2022-09-10T07:15:55.875Z,16.53
2022-09-10T07:16:55.786Z,16.58
2022-09-10T07:17:55.782Z,16.61
2022-09-10T07:18:55.768Z,16.64
2022-09-10T07:19:55.756Z,16.68
2022-09-10T07:20:55.759Z,16.71
2022-09-10T07:21:55.738Z,16.73
2022-09-10T07:22:55.724Z,16.76
2022-09-10T07:23:55.719Z,16.81
2022-09-10T07:24:55.703Z,16.81
2022-09-10T07:25:55.705Z,16.83
2022-09-10T07:26:55.695Z,16.88
2022-09-10T07:27:55.670Z,16.93
2022-09-10T07:28:55.674Z,16.96
2022-09-10T07:29:55.665Z,16.98
2022-09-10T07:30:55.690Z,17.00
2022-09-10T07:31:55.686Z,17.04
2022-09-10T07:32:55.613Z,17.07
2022-09-10T07:33:55.603Z,17.11
2022-09-10T07:34:55.596Z,17.15
2022-09-10T07:35:55.598Z,17.18
2022-09-10T07:36:55.569Z,17.19
2022-09-10T07:37:55.589Z,17.23
2022-09-10T07:38:55.549Z,17.28
2022-09-10T07:39:55.602Z,17.28
2022-09-10T07:40:55.537Z,17.34
2022-09-10T07:41:55.562Z,17.37
2022-09-10T07:42:55.519Z,17.38
2022-09-10T07:43:55.520Z,17.41
2022-09-10T07:44:55.486Z,17.44
2022-09-10T07:45:55.550Z,17.48
2022-09-10T07:46:55.476Z,17.49
2022-09-10T07:47:55.453Z,17.51
2022-09-10T07:48:55.479Z,17.54
2022-09-10T07:49:55.442Z,17.55
2022-09-10T07:50:55.450Z,17.56
2022-09-10T07:51:59.827Z,17.59
2022-09-10T07:52:55.398Z,17.59
2022-09-10T07:53:55.389Z,17.63
2022-09-10T07:54:55.392Z,17.66
2022-09-10T07:55:55.379Z,17.71
2022-09-10T07:56:55.366Z,17.72
2022-09-10T07:57:59.467Z,17.74
2022-09-10T07:58:55.329Z,17.77
2022-09-10T07:59:55.348Z,17.79
2022-09-10T08:00:55.322Z,17.81
2022-09-10T08:01:55.371Z,17.84
2022-09-10T08:02:55.290Z,17.87
2022-09-10T08:03:55.303Z,17.90
2022-09-10T08:04:55.277Z,17.95
2022-09-10T08:05:55.268Z,17.97
2022-09-10T08:06:55.246Z,17.99
2022-09-10T08:07:55.239Z,18.02
2022-09-10T08:08:55.219Z,18.07
2022-09-10T08:09:55.221Z,18.10
2022-09-10T08:10:55.207Z,18.12
2022-09-10T08:11:55.191Z,18.14
2022-09-10T08:12:55.180Z,18.18
2022-09-10T08:13:55.192Z,18.23
2022-09-10T08:14:55.194Z,18.26
2022-09-10T08:15:55.183Z,18.29
2022-09-10T08:16:55.176Z,18.32
2022-09-10T08:17:55.138Z,18.33
2022-09-10T08:18:55.134Z,18.35
2022-09-10T08:19:55.110Z,18.37
2022-09-10T08:20:55.090Z,18.39
2022-09-10T08:21:55.112Z,18.42
2022-09-10T08:22:55.075Z,18.44
2022-09-10T08:23:55.093Z,18.45
2022-09-10T08:24:55.063Z,18.48
2022-09-10T08:25:55.049Z,18.50
2022-09-10T08:26:55.042Z,18.52
2022-09-10T08:27:55.029Z,18.54
2022-09-10T08:28:55.010Z,18.57
2022-09-10T08:29:55.010Z,18.62
2022-09-10T08:30:55.039Z,18.63
2022-09-10T08:31:54.981Z,18.67
2022-09-10T08:32:54.958Z,18.70
2022-09-10T08:33:54.966Z,18.72
2022-09-10T08:34:54.945Z,18.76
2022-09-10T08:35:54.947Z,18.80
2022-09-10T08:36:54.925Z,18.82
2022-09-10T08:37:54.919Z,18.84
2022-09-10T08:38:59.810Z,18.87
2022-09-10T08:39:54.925Z,18.90
2022-09-10T08:40:54.888Z,18.91
2022-09-10T08:41:54.890Z,18.92
2022-09-10T08:42:54.856Z,18.92
2022-09-10T08:43:54.868Z,18.94
2022-09-10T08:44:54.828Z,18.99
2022-09-10T08:45:54.905Z,19.00
2022-09-10T08:46:54.824Z,19.04
2022-09-10T08:47:54.842Z,19.07
2022-09-10T08:48:54.800Z,19.08
2022-09-10T08:49:54.804Z,19.11
2022-09-10T08:50:54.775Z,19.16
2022-09-10T08:51:54.762Z,19.16
2022-09-10T08:52:54.774Z,19.19
2022-09-10T08:53:54.740Z,19.22
2022-09-10T08:54:54.717Z,19.22
2022-09-10T08:55:54.717Z,19.26
2022-09-10T08:56:54.707Z,19.26
2022-09-10T08:57:54.715Z,19.28
2022-09-10T08:58:54.759Z,19.29
2022-09-10T08:59:54.694Z,19.31
2022-09-10T09:00:54.653Z,19.32
2022-09-10T09:01:54.790Z,19.36
2022-09-10T09:02:54.665Z,19.41
2022-09-10T09:03:54.681Z,19.41
2022-09-10T09:04:54.625Z,19.46
2022-09-10T09:05:54.603Z,19.48
2022-09-10T09:06:54.592Z,19.50
2022-09-10T09:07:54.597Z,19.55
2022-09-10T09:08:54.570Z,19.58
2022-09-10T09:09:54.580Z,19.59
2022-09-10T09:10:54.587Z,19.61
2022-09-10T09:11:54.542Z,19.65
2022-09-10T09:12:54.547Z,19.66
2022-09-10T09:13:54.527Z,19.69
2022-09-10T09:14:54.512Z,19.73
2022-09-10T09:15:54.586Z,19.76
2022-09-10T09:16:54.582Z,19.78
2022-09-10T09:17:54.474Z,19.81
2022-09-10T09:18:54.474Z,19.84
2022-09-10T09:19:54.465Z,19.87
2022-09-10T09:20:54.449Z,19.91
2022-09-10T09:21:54.442Z,19.92
2022-09-10T09:22:54.461Z,19.95
2022-09-10T09:24:12.176Z,19.98
2022-09-10T09:24:54.415Z,19.99
2022-09-10T09:25:54.411Z,20.01
2022-09-10T09:26:54.437Z,20.02
2022-09-10T09:27:54.366Z,20.05
2022-09-10T09:28:54.367Z,20.08
2022-09-10T09:29:54.410Z,20.10
2022-09-10T09:30:54.475Z,20.08
2022-09-10T09:31:54.525Z,20.11
2022-09-10T09:32:54.414Z,20.13
2022-09-10T09:33:54.404Z,20.13
2022-09-10T09:34:54.384Z,20.14
2022-09-10T09:35:54.373Z,20.14
2022-09-10T09:36:54.449Z,20.16
2022-09-10T09:37:54.320Z,20.17
2022-09-10T09:38:54.332Z,20.18
2022-09-10T09:39:54.408Z,20.20
2022-09-10T09:40:54.287Z,20.21
2022-09-10T09:41:54.254Z,20.24
2022-09-10T09:42:54.295Z,20.28
2022-09-10T09:43:54.190Z,20.31
2022-09-10T09:44:57.132Z,20.29
2022-09-10T09:45:54.290Z,20.31
2022-09-10T09:46:54.167Z,20.33
2022-09-10T09:47:54.179Z,20.36
2022-09-10T09:48:54.161Z,20.39
2022-09-10T09:49:54.126Z,20.39
2022-09-10T09:50:54.114Z,20.41
2022-09-10T09:51:54.122Z,20.42
2022-09-10T09:52:54.130Z,20.47
2022-09-10T09:54:19.666Z,20.47
2022-09-10T09:55:54.065Z,20.50
2022-09-10T09:56:54.079Z,20.52
2022-09-10T09:57:54.056Z,20.55
2022-09-10T09:58:54.045Z,20.59
2022-09-10T09:59:54.010Z,20.62
2022-09-10T10:00:54.015Z,20.62
2022-09-10T10:01:54.065Z,20.66
2022-09-10T10:02:54.010Z,20.64
2022-09-10T10:03:53.975Z,20.66
2022-09-10T10:04:53.967Z,20.64
2022-09-10T10:05:53.956Z,20.62
2022-09-10T10:06:53.946Z,20.61
2022-09-10T10:07:53.945Z,20.57
2022-09-10T10:08:53.922Z,20.52
2022-09-10T10:09:53.911Z,20.51
2022-09-10T10:10:53.900Z,20.50
2022-09-10T10:11:53.902Z,20.52
2022-09-10T10:12:53.880Z,20.54
2022-09-10T10:13:53.884Z,20.57
2022-09-10T10:14:53.853Z,20.58
2022-09-10T10:15:53.883Z,20.61
2022-09-10T10:16:57.413Z,20.59
2022-09-10T10:17:53.848Z,20.61
2022-09-10T10:18:53.811Z,20.61
2022-09-10T10:19:53.801Z,20.62
2022-09-10T10:20:53.795Z,20.66
2022-09-10T10:21:53.802Z,20.66
2022-09-10T10:22:53.786Z,20.67
2022-09-10T10:23:53.811Z,20.72
2022-09-10T10:24:53.828Z,20.76
2022-09-10T10:25:53.727Z,20.82
2022-09-10T10:26:53.739Z,20.87
2022-09-10T10:27:53.721Z,20.92
2022-09-10T10:28:53.709Z,20.98
2022-09-10T10:29:53.702Z,21.06
2022-09-10T10:30:53.780Z,21.12
2022-09-10T10:31:53.683Z,21.17
2022-09-10T10:32:53.672Z,21.25
2022-09-10T10:33:53.642Z,21.31
2022-09-10T10:34:53.645Z,21.38
2022-09-10T10:35:53.623Z,21.44
2022-09-10T10:36:53.634Z,21.53
2022-09-10T10:37:53.619Z,21.61
2022-09-10T10:38:53.627Z,21.68
2022-09-10T10:39:53.608Z,21.75
2022-09-10T10:40:53.577Z,21.82
2022-09-10T10:41:53.562Z,21.82
2022-09-10T10:42:53.575Z,21.84
2022-09-10T10:43:53.552Z,21.84
2022-09-10T10:44:53.526Z,21.79
2022-09-10T10:45:53.639Z,21.75
2022-09-10T10:46:53.597Z,21.74
2022-09-10T10:47:53.499Z,21.72
2022-09-10T10:48:57.879Z,21.69
2022-09-10T10:49:53.481Z,21.62
2022-09-10T10:50:53.460Z,21.61
2022-09-10T10:51:53.461Z,21.53
2022-09-10T10:52:53.450Z,21.46
2022-09-10T10:53:53.435Z,21.44
2022-09-10T10:54:53.419Z,21.50
2022-09-10T10:55:53.426Z,21.53
2022-09-10T10:56:54.085Z,21.59
2022-09-10T10:57:53.381Z,21.61
2022-09-10T10:58:54.478Z,21.65
2022-09-10T10:59:53.373Z,21.75
2022-09-10T11:00:53.376Z,21.86
2022-09-10T11:01:53.518Z,21.98
2022-09-10T11:02:53.333Z,22.07
2022-09-10T11:03:53.322Z,22.17
2022-09-10T11:04:53.310Z,22.27
2022-09-10T11:05:53.312Z,22.35
2022-09-10T11:06:53.355Z,22.46
2022-09-10T11:07:53.274Z,22.60
2022-09-10T11:08:53.275Z,22.75
2022-09-10T11:09:53.258Z,22.83
2022-09-10T11:10:53.250Z,22.95
2022-09-10T11:11:53.246Z,23.05
2022-09-10T11:12:53.244Z,23.15
2022-09-10T11:13:53.243Z,23.27
2022-09-10T11:14:53.212Z,23.32
2022-09-10T11:15:53.312Z,23.31
2022-09-10T11:16:57.831Z,23.23
2022-09-10T11:17:53.185Z,23.15
2022-09-10T11:18:53.190Z,23.07
2022-09-10T11:20:10.857Z,23.01
2022-09-10T11:20:53.144Z,22.97
2022-09-10T11:21:53.123Z,22.88
2022-09-10T11:22:53.128Z,22.82
2022-09-10T11:23:53.104Z,22.79
2022-09-10T11:24:53.111Z,22.91
2022-09-10T11:25:53.090Z,23.01
2022-09-10T11:26:53.074Z,23.17
2022-09-10T11:27:53.123Z,23.28
2022-09-10T11:28:53.061Z,23.25
2022-09-10T11:29:53.036Z,23.19
2022-09-10T11:30:53.118Z,23.12
2022-09-10T11:31:53.015Z,23.07
2022-09-10T11:32:53.017Z,23.01
2022-09-10T11:33:53.011Z,22.94
2022-09-10T11:34:52.998Z,22.85
2022-09-10T11:35:52.978Z,22.77
2022-09-10T11:36:52.970Z,22.72
2022-09-10T11:37:52.960Z,22.67
2022-09-10T11:38:52.962Z,22.61
2022-09-10T11:39:53.028Z,22.61
2022-09-10T11:40:52.941Z,22.61
2022-09-10T11:41:52.913Z,22.61
2022-09-10T11:42:52.911Z,22.77
2022-09-10T11:43:52.899Z,23.02
2022-09-10T11:44:52.875Z,23.15
2022-09-10T11:45:52.935Z,23.33
2022-09-10T11:46:52.859Z,23.35
2022-09-10T11:47:52.848Z,23.33
2022-09-10T11:48:52.843Z,23.28
2022-09-10T11:49:52.834Z,23.19
2022-09-10T11:50:52.833Z,23.15
2022-09-10T11:51:52.806Z,23.07
2022-09-10T11:52:52.811Z,23.07
2022-09-10T11:53:52.788Z,23.36
2022-09-10T11:54:52.789Z,23.48
2022-09-10T11:55:52.774Z,23.72
2022-09-10T11:56:52.803Z,24.00
2022-09-10T11:57:52.739Z,24.28
2022-09-10T11:58:52.738Z,24.60
2022-09-10T11:59:52.730Z,24.91
2022-09-10T12:00:52.732Z,25.14
2022-09-10T12:01:52.762Z,25.33
2022-09-10T12:02:52.708Z,25.54
2022-09-10T12:03:52.713Z,25.76
2022-09-10T12:04:52.664Z,25.95
2022-09-10T12:05:52.653Z,26.02
2022-09-10T12:06:52.646Z,26.05
2022-09-10T12:07:52.643Z,25.87
2022-09-10T12:08:52.651Z,25.80
2022-09-10T12:09:52.621Z,26.02
2022-09-10T12:10:52.605Z,26.25
2022-09-10T12:11:52.600Z,26.39
2022-09-10T12:12:52.579Z,26.55
2022-09-10T12:13:52.635Z,26.67
2022-09-10T12:14:52.580Z,26.82
2022-09-10T12:15:52.602Z,26.94
2022-09-10T12:16:52.543Z,27.06
2022-09-10T12:17:52.546Z,27.13
2022-09-10T12:18:52.533Z,27.39
2022-09-10T12:19:52.522Z,27.49
2022-09-10T12:20:52.520Z,27.65
2022-09-10T12:21:52.494Z,27.66
2022-09-10T12:22:52.510Z,27.70
2022-09-10T12:23:52.462Z,27.85
2022-09-10T12:24:52.490Z,27.94
2022-09-10T12:25:52.450Z,28.02
2022-09-10T12:26:52.447Z,28.19
2022-09-10T12:27:52.433Z,28.40
2022-09-10T12:28:52.449Z,28.61
2022-09-10T12:29:52.410Z,28.86
2022-09-10T12:30:52.455Z,29.02
2022-09-10T12:31:52.388Z,29.12
2022-09-10T12:32:52.377Z,29.26
2022-09-10T12:33:52.356Z,29.27
2022-09-10T12:34:52.362Z,29.28
2022-09-10T12:35:52.369Z,29.39
2022-09-10T12:36:52.340Z,29.53
2022-09-10T12:37:52.336Z,29.67
2022-09-10T12:38:52.327Z,29.51
2022-09-10T12:39:52.362Z,29.46
2022-09-10T12:40:52.314Z,29.46
2022-09-10T12:41:52.275Z,29.52
2022-09-10T12:42:52.274Z,29.58
2022-09-10T12:43:52.254Z,29.61
2022-09-10T12:44:52.260Z,29.73
2022-09-10T12:45:52.277Z,29.70
2022-09-10T12:46:52.244Z,29.64
2022-09-10T12:47:52.219Z,29.68
2022-09-10T12:48:52.217Z,29.76
2022-09-10T12:49:52.205Z,29.87
2022-09-10T12:50:52.202Z,29.95
2022-09-10T12:51:52.195Z,29.89
2022-09-10T12:52:52.191Z,30.07